< Typhoon 199321 1993 Season Typhoon 199323 >
Typhoon 199322 (HATTIE)
General InformationTrack Information on Google MapsDetailed Wind InformationList of All Images || Disaster Info.ResourceGoogle EarthGE AnimationAtom FeedGeoJSON
Detalied Best Track (Time Zone = UTC)
Year Month Day Hour Lat. Long. Pressure (hPa) Wind (kt) Class Image Chart
1993 10 19 12 13.0 160.0 1000 0 2 Image Chart
1993 10 19 18 13.0 159.5 1000 0 2 Image Chart
1993 10 20 00 13.3 158.8 998 0 2 Image Chart
1993 10 20 06 13.6 158.0 996 0 2 Image Chart
1993 10 20 12 14.0 157.3 996 0 2 Image Chart
1993 10 20 18 14.7 156.8 996 0 2 Image Chart
1993 10 21 00 15.2 156.4 996 0 2 Image Chart
1993 10 21 06 15.7 156.1 996 0 2 Image Chart
1993 10 21 12 16.1 155.9 996 0 2 Image Chart
1993 10 21 18 16.6 155.7 996 0 2 Image Chart
1993 10 22 00 17.5 155.5 996 0 2 Image Chart
1993 10 22 06 19.0 155.5 994 35 3 Image Chart
1993 10 22 12 20.8 155.2 990 40 3 Image Chart
1993 10 22 18 22.2 154.3 985 45 3 Image Chart
1993 10 23 00 23.5 153.3 985 45 3 Image Chart
1993 10 23 06 24.1 153.0 985 45 3 Image Chart
1993 10 23 12 24.6 153.3 985 45 3 Image Chart
1993 10 23 18 25.1 154.5 985 45 3 Image Chart
1993 10 24 00 25.8 155.8 980 45 3 Image Chart
1993 10 24 06 27.2 157.3 980 50 4 Image Chart
1993 10 24 12 29.0 158.5 980 50 4 Image Chart
1993 10 24 18 31.5 160.5 985 45 3 Image Chart
1993 10 25 00 33.8 162.8 985 45 3 Image Chart
1993 10 25 06 35.8 166.5 990 40 3 Image Chart
1993 10 25 12 37.0 170.0 996 0 6 Image Chart
1993 10 25 18 38.0 173.0 1000 0 6 Image Chart
1993 10 26 00 39.0 176.0 1002 0 6 Image Chart
1993 10 26 06 40.5 179.5 1004 0 6 Image Chart
1993 10 26 12 41.5 182.5 1006 0 6 Image Chart
Japan Meteorological Agency Best Track Data | Correction Date : 1994-01-10
< Typhoon 199321 1993 Season Typhoon 199323 >

Help